sensor_id;sensor_type;location;lat;lon;timestamp;pressure;altitude;pressure_sealevel;temperature;humidity
6198;BME280;3132;42.622;23.328;2023-01-15T00:00:02;93194.25;;;3.41;96.18
6198;BME280;3132;42.622;23.328;2023-01-15T00:02:29;93180.16;;;3.55;95.22
6198;BME280;3132;42.622;23.328;2023-01-15T00:04:55;93197.66;;;3.53;94.90
6198;BME280;3132;42.622;23.328;2023-01-15T00:07:20;93185.63;;;3.58;95.02
6198;BME280;3132;42.622;23.328;2023-01-15T00:09:46;93186.47;;;3.70;94.94
6198;BME280;3132;42.622;23.328;2023-01-15T00:12:11;93192.75;;;3.74;94.55
6198;BME280;3132;42.622;23.328;2023-01-15T00:14:36;93174.78;;;3.68;94.06
6198;BME280;3132;42.622;23.328;2023-01-15T00:17:02;93169.47;;;3.51;94.37
6198;BME280;3132;42.622;23.328;2023-01-15T00:19:27;93165.19;;;3.45;94.07
6198;BME280;3132;42.622;23.328;2023-01-15T00:21:52;93187.34;;;3.76;93.57
6198;BME280;3132;42.622;23.328;2023-01-15T00:24:18;93181.19;;;3.65;93.16
6198;BME280;3132;42.622;23.328;2023-01-15T00:27:01;93165.44;;;3.55;92.40
6198;BME280;3132;42.622;23.328;2023-01-15T00:29:46;93151.91;;;3.30;93.88
6198;BME280;3132;42.622;23.328;2023-01-15T00:32:11;93183.09;;;3.70;92.56
6198;BME280;3132;42.622;23.328;2023-01-15T00:34:36;93181.13;;;3.54;92.96
6198;BME280;3132;42.622;23.328;2023-01-15T00:37:02;93183.81;;;3.47;93.93
6198;BME280;3132;42.622;23.328;2023-01-15T00:39:27;93180.59;;;3.52;94.24
6198;BME280;3132;42.622;23.328;2023-01-15T00:41:53;93171.94;;;3.46;94.42
6198;BME280;3132;42.622;23.328;2023-01-15T00:44:18;93188.97;;;3.47;94.97
6198;BME280;3132;42.622;23.328;2023-01-15T00:46:45;93144.75;;;3.20;94.92
6198;BME280;3132;42.622;23.328;2023-01-15T00:49:11;93167.31;;;3.37;94.64
6198;BME280;3132;42.622;23.328;2023-01-15T00:51:36;93134.78;;;2.94;95.91
6198;BME280;3132;42.622;23.328;2023-01-15T00:54:02;93123.84;;;3.10;94.99
6198;BME280;3132;42.622;23.328;2023-01-15T00:56:28;93178.09;;;3.45;94.46
6198;BME280;3132;42.622;23.328;2023-01-15T00:58:53;93165.03;;;3.28;95.39
6198;BME280;3132;42.622;23.328;2023-01-15T01:01:19;93176.66;;;3.49;95.12
6198;BME280;3132;42.622;23.328;2023-01-15T01:03:44;93183.81;;;3.47;95.32
6198;BME280;3132;42.622;23.328;2023-01-15T01:06:15;93185.41;;;3.48;94.70
6198;BME280;3132;42.622;23.328;2023-01-15T01:08:42;93188.56;;;3.62;94.53
6198;BME280;3132;42.622;23.328;2023-01-15T01:11:09;93177.25;;;3.63;93.82
6198;BME280;3132;42.622;23.328;2023-01-15T01:13:37;93177.34;;;3.68;93.98
6198;BME280;3132;42.622;23.328;2023-01-15T01:16:03;93177.03;;;3.64;93.68
6198;BME280;3132;42.622;23.328;2023-01-15T01:18:28;93171.75;;;3.59;95.00
6198;BME280;3132;42.622;23.328;2023-01-15T01:20:54;93169.38;;;3.58;94.39
6198;BME280;3132;42.622;23.328;2023-01-15T01:23:22;93172.19;;;3.56;94.60
6198;BME280;3132;42.622;23.328;2023-01-15T01:25:47;93168.25;;;3.65;94.57
6198;BME280;3132;42.622;23.328;2023-01-15T01:28:13;93159.16;;;3.51;95.05
6198;BME280;3132;42.622;23.328;2023-01-15T01:30:38;93141.28;;;3.38;95.02
6198;BME280;3132;42.622;23.328;2023-01-15T01:33:04;93147.91;;;3.46;95.75
6198;BME280;3132;42.622;23.328;2023-01-15T01:35:29;93133.97;;;3.35;95.85
6198;BME280;3132;42.622;23.328;2023-01-15T01:37:54;93142.31;;;3.49;95.84
6198;BME280;3132;42.622;23.328;2023-01-15T01:40:20;93142.09;;;3.50;95.66
6198;BME280;3132;42.622;23.328;2023-01-15T01:42:45;93142.09;;;3.50;94.16
6198;BME280;3132;42.622;23.328;2023-01-15T01:45:37;93162.97;;;3.60;94.55
6198;BME280;3132;42.622;23.328;2023-01-15T01:48:05;93167.56;;;3.58;93.30
6198;BME280;3132;42.622;23.328;2023-01-15T01:50:32;93149.97;;;3.67;92.59
6198;BME280;3132;42.622;23.328;2023-01-15T01:53:02;93141.78;;;3.70;92.17
6198;BME280;3132;42.622;23.328;2023-01-15T01:55:32;93159.53;;;3.78;92.67
6198;BME280;3132;42.622;23.328;2023-01-15T01:57:59;93140.75;;;3.59;92.59
6198;BME280;3132;42.622;23.328;2023-01-15T02:00:27;93149.31;;;3.71;93.00
6198;BME280;3132;42.622;23.328;2023-01-15T02:02:54;93157.94;;;3.77;92.19
6198;BME280;3132;42.622;23.328;2023-01-15T02:05:31;93142.56;;;3.70;91.59
6198;BME280;3132;42.622;23.328;2023-01-15T02:07:57;93159.72;;;3.65;89.95
6198;BME280;3132;42.622;23.328;2023-01-15T02:10:23;93159.38;;;3.50;90.14
6198;BME280;3132;42.622;23.328;2023-01-15T02:15:28;93161.41;;;3.59;90.28
6198;BME280;3132;42.622;23.328;2023-01-15T02:18:48;93145.81;;;3.77;90.24
6198;BME280;3132;42.622;23.328;2023-01-15T02:21:15;93158.63;;;3.84;89.48
6198;BME280;3132;42.622;23.328;2023-01-15T02:26:53;93136.41;;;3.83;88.55
6198;BME280;3132;42.622;23.328;2023-01-15T02:32:17;93134.81;;;3.59;87.96
6198;BME280;3132;42.622;23.328;2023-01-15T02:34:51;93133.25;;;3.58;89.56
6198;BME280;3132;42.622;23.328;2023-01-15T02:37:23;93153.44;;;3.61;91.22
6198;BME280;3132;42.622;23.328;2023-01-15T02:39:50;93132.09;;;3.54;91.85
6198;BME280;3132;42.622;23.328;2023-01-15T02:42:18;93128.84;;;3.58;91.34
6198;BME280;3132;42.622;23.328;2023-01-15T02:44:47;93131.78;;;3.50;90.12
6198;BME280;3132;42.622;23.328;2023-01-15T02:47:16;93124.38;;;3.42;90.24
6198;BME280;3132;42.622;23.328;2023-01-15T02:49:43;93128.19;;;3.74;89.93
6198;BME280;3132;42.622;23.328;2023-01-15T02:52:21;93133.69;;;3.78;89.24
6198;BME280;3132;42.622;23.328;2023-01-15T02:55:15;93133.34;;;3.74;89.80
6198;BME280;3132;42.622;23.328;2023-01-15T02:57:44;93135.38;;;3.72;91.15
6198;BME280;3132;42.622;23.328;2023-01-15T03:00:12;93139.53;;;3.73;90.42
6198;BME280;3132;42.622;23.328;2023-01-15T03:02:45;93124.81;;;3.62;90.76
6198;BME280;3132;42.622;23.328;2023-01-15T03:05:22;93133.47;;;3.68;90.60
6198;BME280;3132;42.622;23.328;2023-01-15T03:07:58;93132.31;;;3.52;90.55
6198;BME280;3132;42.622;23.328;2023-01-15T03:13:30;93136.25;;;3.43;93.07
6198;BME280;3132;42.622;23.328;2023-01-15T03:16:04;93142.66;;;3.52;93.73
6198;BME280;3132;42.622;23.328;2023-01-15T03:18:59;93145.91;;;3.48;93.76
6198;BME280;3132;42.622;23.328;2023-01-15T03:24:18;93151.31;;;3.58;93.39
6198;BME280;3132;42.622;23.328;2023-01-15T03:26:45;93146.59;;;3.55;92.45
6198;BME280;3132;42.622;23.328;2023-01-15T03:29:12;93148.03;;;3.51;92.59
6198;BME280;3132;42.622;23.328;2023-01-15T03:31:39;93128.63;;;3.48;93.10
6198;BME280;3132;42.622;23.328;2023-01-15T03:34:05;93139.97;;;3.59;93.03
6198;BME280;3132;42.622;23.328;2023-01-15T03:36:32;93127.72;;;3.54;92.98
6198;BME280;3132;42.622;23.328;2023-01-15T03:38:57;93148.41;;;3.66;92.55
6198;BME280;3132;42.622;23.328;2023-01-15T03:44:16;93149.72;;;3.45;94.30
6198;BME280;3132;42.622;23.328;2023-01-15T03:52:38;93150.63;;;3.51;94.32
6198;BME280;3132;42.622;23.328;2023-01-15T03:57:48;93150.38;;;3.52;94.23
6198;BME280;3132;42.622;23.328;2023-01-15T04:00:21;93148.13;;;3.44;94.00
6198;BME280;3132;42.622;23.328;2023-01-15T04:02:49;93139.53;;;3.50;94.56
6198;BME280;3132;42.622;23.328;2023-01-15T04:05:17;93133.78;;;3.48;93.90
6198;BME280;3132;42.622;23.328;2023-01-15T04:07:42;93143.44;;;3.53;94.50
6198;BME280;3132;42.622;23.328;2023-01-15T04:10:10;93129.41;;;3.37;93.80
6198;BME280;3132;42.622;23.328;2023-01-15T04:12:36;93139.00;;;3.30;93.62
6198;BME280;3132;42.622;23.328;2023-01-15T04:15:01;93146.34;;;3.33;94.65
6198;BME280;3132;42.622;23.328;2023-01-15T04:17:27;93131.19;;;3.37;95.31
6198;BME280;3132;42.622;23.328;2023-01-15T04:19:52;93125.44;;;3.23;95.09
6198;BME280;3132;42.622;23.328;2023-01-15T04:22:18;93138.03;;;3.31;95.92
6198;BME280;3132;42.622;23.328;2023-01-15T04:24:43;93124.75;;;3.16;95.51
6198;BME280;3132;42.622;23.328;2023-01-15T04:27:08;93140.69;;;3.24;95.57
6198;BME280;3132;42.622;23.328;2023-01-15T04:29:34;93148.44;;;3.24;94.82
6198;BME280;3132;42.622;23.328;2023-01-15T04:31:59;93148.47;;;3.36;94.98
6198;BME280;3132;42.622;23.328;2023-01-15T04:34:26;93139.16;;;3.35;94.38
6198;BME280;3132;42.622;23.328;2023-01-15T04:36:51;93144.75;;;3.32;94.52
6198;BME280;3132;42.622;23.328;2023-01-15T04:39:17;93133.75;;;3.25;94.68
6198;BME280;3132;42.622;23.328;2023-01-15T04:41:42;93150.78;;;3.26;94.85
6198;BME280;3132;42.622;23.328;2023-01-15T04:44:26;93130.47;;;3.06;95.20
6198;BME280;3132;42.622;23.328;2023-01-15T04:46:53;93150.88;;;3.08;95.62
6198;BME280;3132;42.622;23.328;2023-01-15T04:49:19;93155.00;;;3.09;95.32
6198;BME280;3132;42.622;23.328;2023-01-15T04:51:45;93131.28;;;2.89;95.96
6198;BME280;3132;42.622;23.328;2023-01-15T04:54:12;93136.66;;;2.87;96.26
6198;BME280;3132;42.622;23.328;2023-01-15T04:56:40;93150.47;;;2.93;96.76
6198;BME280;3132;42.622;23.328;2023-01-15T04:59:06;93146.63;;;2.84;96.75
6198;BME280;3132;42.622;23.328;2023-01-15T05:01:32;93007.53;;;1.89;96.87
6198;BME280;3132;42.622;23.328;2023-01-15T05:03:57;93136.34;;;2.66;97.62
6198;BME280;3132;42.622;23.328;2023-01-15T05:06:24;93152.34;;;2.86;96.79
6198;BME280;3132;42.622;23.328;2023-01-15T05:08:50;93153.91;;;2.87;96.79
6198;BME280;3132;42.622;23.328;2023-01-15T05:11:15;93144.63;;;2.86;95.81
6198;BME280;3132;42.622;23.328;2023-01-15T05:13:40;93150.22;;;2.83;95.80
6198;BME280;3132;42.622;23.328;2023-01-15T05:16:17;93154.56;;;2.82;96.19
6198;BME280;3132;42.622;23.328;2023-01-15T05:18:44;93154.00;;;2.80;95.28
6198;BME280;3132;42.622;23.328;2023-01-15T05:21:14;93141.06;;;2.69;95.37
6198;BME280;3132;42.622;23.328;2023-01-15T05:23:41;93147.22;;;2.68;95.46
6198;BME280;3132;42.622;23.328;2023-01-15T05:26:06;93123.78;;;2.40;95.51
6198;BME280;3132;42.622;23.328;2023-01-15T05:28:31;93141.72;;;2.46;95.85
6198;BME280;3132;42.622;23.328;2023-01-15T05:30:57;93129.50;;;2.42;95.56
6198;BME280;3132;42.622;23.328;2023-01-15T05:33:22;93149.13;;;2.43;96.31
6198;BME280;3132;42.622;23.328;2023-01-15T05:35:47;93150.34;;;2.40;96.02
6198;BME280;3132;42.622;23.328;2023-01-15T05:38:13;93148.41;;;2.36;95.93
6198;BME280;3132;42.622;23.328;2023-01-15T05:40:38;93143.25;;;2.36;96.84
6198;BME280;3132;42.622;23.328;2023-01-15T05:43:04;93142.56;;;2.29;96.40
6198;BME280;3132;42.622;23.328;2023-01-15T05:45:29;93128.78;;;2.17;96.73
6198;BME280;3132;42.622;23.328;2023-01-15T05:47:54;93139.25;;;2.22;96.39
6198;BME280;3132;42.622;23.328;2023-01-15T05:50:20;93139.31;;;2.15;97.42
6198;BME280;3132;42.622;23.328;2023-01-15T05:52:45;93147.50;;;2.30;96.92
6198;BME280;3132;42.622;23.328;2023-01-15T05:55:10;93154.56;;;2.35;95.83
6198;BME280;3132;42.622;23.328;2023-01-15T05:57:36;93156.56;;;2.33;95.43
6198;BME280;3132;42.622;23.328;2023-01-15T06:00:03;93166.34;;;2.24;96.14
6198;BME280;3132;42.622;23.328;2023-01-15T06:02:29;93164.72;;;2.30;95.64
6198;BME280;3132;42.622;23.328;2023-01-15T06:04:54;93165.00;;;2.40;95.09
6198;BME280;3132;42.622;23.328;2023-01-15T06:07:19;93141.69;;;2.35;95.22
6198;BME280;3132;42.622;23.328;2023-01-15T06:09:45;93153.53;;;2.54;94.83
6198;BME280;3132;42.622;23.328;2023-01-15T06:12:10;93160.09;;;2.68;94.11
6198;BME280;3132;42.622;23.328;2023-01-15T06:14:35;93165.25;;;2.68;94.02
6198;BME280;3132;42.622;23.328;2023-01-15T06:17:01;93151.75;;;2.72;93.40
6198;BME280;3132;42.622;23.328;2023-01-15T06:19:26;93165.50;;;2.96;92.81
6198;BME280;3132;42.622;23.328;2023-01-15T06:21:52;93156.31;;;2.70;92.86
6198;BME280;3132;42.622;23.328;2023-01-15T06:24:17;93122.75;;;2.59;92.99
6198;BME280;3132;42.622;23.328;2023-01-15T06:26:44;93148.28;;;2.78;93.73
6198;BME280;3132;42.622;23.328;2023-01-15T06:29:10;93155.09;;;2.73;94.91
6198;BME280;3132;42.622;23.328;2023-01-15T06:31:35;93111.56;;;2.65;93.14
6198;BME280;3132;42.622;23.328;2023-01-15T06:34:01;93154.50;;;2.89;93.33
6198;BME280;3132;42.622;23.328;2023-01-15T06:36:27;93144.47;;;2.81;94.06
6198;BME280;3132;42.622;23.328;2023-01-15T06:38:53;93145.56;;;3.03;93.89
6198;BME280;3132;42.622;23.328;2023-01-15T06:41:23;93160.31;;;3.14;93.77
6198;BME280;3132;42.622;23.328;2023-01-15T06:44:14;93160.31;;;3.14;93.78
6198;BME280;3132;42.622;23.328;2023-01-15T06:47:01;93149.69;;;3.22;92.45
6198;BME280;3132;42.622;23.328;2023-01-15T06:49:46;93166.78;;;3.46;92.02
6198;BME280;3132;42.622;23.328;2023-01-15T06:52:12;93168.91;;;3.38;92.13
6198;BME280;3132;42.622;23.328;2023-01-15T06:54:37;93165.19;;;3.45;92.42
6198;BME280;3132;42.622;23.328;2023-01-15T06:57:03;93156.78;;;3.50;92.62
6198;BME280;3132;42.622;23.328;2023-01-15T06:59:29;93164.44;;;3.68;91.46
6198;BME280;3132;42.622;23.328;2023-01-15T07:01:55;93152.56;;;3.67;91.44
6198;BME280;3132;42.622;23.328;2023-01-15T07:04:21;93142.56;;;3.70;90.89
6198;BME280;3132;42.622;23.328;2023-01-15T07:06:46;93128.63;;;3.48;91.94
6198;BME280;3132;42.622;23.328;2023-01-15T07:09:12;93155.16;;;3.78;91.48
6198;BME280;3132;42.622;23.328;2023-01-15T07:11:37;93151.53;;;3.68;92.10
6198;BME280;3132;42.622;23.328;2023-01-15T07:14:21;93131.25;;;3.83;91.33
6198;BME280;3132;42.622;23.328;2023-01-15T07:16:47;93164.03;;;4.17;90.22
6198;BME280;3132;42.622;23.328;2023-01-15T07:19:13;93166.16;;;4.08;87.07
6198;BME280;3132;42.622;23.328;2023-01-15T07:21:39;93145.03;;;4.23;85.96
6198;BME280;3132;42.622;23.328;2023-01-15T07:24:05;93166.69;;;4.45;85.79
6198;BME280;3132;42.622;23.328;2023-01-15T07:26:30;93160.59;;;4.51;85.86
6198;BME280;3132;42.622;23.328;2023-01-15T07:28:56;93143.88;;;4.42;84.64
6198;BME280;3132;42.622;23.328;2023-01-15T07:31:21;93171.28;;;4.54;84.01
6198;BME280;3132;42.622;23.328;2023-01-15T07:33:47;93161.28;;;4.46;85.00
6198;BME280;3132;42.622;23.328;2023-01-15T07:36:12;93172.50;;;4.52;84.08
6198;BME280;3132;42.622;23.328;2023-01-15T07:38:37;93138.84;;;4.24;85.15
6198;BME280;3132;42.622;23.328;2023-01-15T07:41:03;93181.31;;;4.28;86.67
6198;BME280;3132;42.622;23.328;2023-01-15T07:43:47;93168.41;;;3.93;87.83
6198;BME280;3132;42.622;23.328;2023-01-15T07:46:31;93165.69;;;3.88;87.61
6198;BME280;3132;42.622;23.328;2023-01-15T07:49:15;93175.91;;;4.06;86.72
6198;BME280;3132;42.622;23.328;2023-01-15T07:51:59;93167.50;;;4.22;85.97
6198;BME280;3132;42.622;23.328;2023-01-15T07:54:25;93174.34;;;4.79;84.62
6198;BME280;3132;42.622;23.328;2023-01-15T07:56:51;93173.06;;;4.93;83.88
6198;BME280;3132;42.622;23.328;2023-01-15T07:59:17;93177.69;;;4.91;82.31
6198;BME280;3132;42.622;23.328;2023-01-15T08:01:43;93161.75;;;4.43;82.69
6198;BME280;3132;42.622;23.328;2023-01-15T08:04:08;93158.59;;;4.30;84.50
6198;BME280;3132;42.622;23.328;2023-01-15T08:06:34;93164.59;;;4.07;84.68
6198;BME280;3132;42.622;23.328;2023-01-15T08:09:00;93174.81;;;4.14;85.08
6198;BME280;3132;42.622;23.328;2023-01-15T08:11:26;93166.38;;;4.07;85.72
6198;BME280;3132;42.622;23.328;2023-01-15T08:14:10;93129.78;;;3.98;84.88
6198;BME280;3132;42.622;23.328;2023-01-15T08:16:54;93151.03;;;4.51;83.73
6198;BME280;3132;42.622;23.328;2023-01-15T08:19:20;93166.22;;;4.87;81.50
6198;BME280;3132;42.622;23.328;2023-01-15T08:21:45;93162.44;;;4.78;80.82
6198;BME280;3132;42.622;23.328;2023-01-15T08:24:12;93136.34;;;4.40;82.61
6198;BME280;3132;42.622;23.328;2023-01-15T08:26:37;93158.06;;;4.79;92.05
6198;BME280;3132;42.622;23.328;2023-01-15T08:29:03;93187.66;;;5.28;91.24
6198;BME280;3132;42.622;23.328;2023-01-15T08:31:28;93180.88;;;5.38;82.97
6198;BME280;3132;42.622;23.328;2023-01-15T08:33:53;93181.03;;;5.32;82.00
6198;BME280;3132;42.622;23.328;2023-01-15T08:36:19;93177.72;;;5.36;81.94
6198;BME280;3132;42.622;23.328;2023-01-15T08:38:47;93197.84;;;5.46;80.17
6198;BME280;3132;42.622;23.328;2023-01-15T08:41:14;93199.44;;;5.63;79.27
6198;BME280;3132;42.622;23.328;2023-01-15T08:43:39;93190.69;;;5.53;77.25
6198;BME280;3132;42.622;23.328;2023-01-15T08:46:05;93195.06;;;5.36;78.26
6198;BME280;3132;42.622;23.328;2023-01-15T08:48:31;93173.06;;;5.22;78.78
6198;BME280;3132;42.622;23.328;2023-01-15T08:50:57;93188.41;;;5.40;79.06
6198;BME280;3132;42.622;23.328;2023-01-15T08:53:22;93187.72;;;5.61;77.64
6198;BME280;3132;42.622;23.328;2023-01-15T08:55:49;93191.25;;;5.55;77.69
6198;BME280;3132;42.622;23.328;2023-01-15T08:58:15;93183.63;;;5.32;79.14
6198;BME280;3132;42.622;23.328;2023-01-15T09:00:41;93193.16;;;5.31;79.03
6198;BME280;3132;42.622;23.328;2023-01-15T09:03:08;93183.63;;;5.48;78.79
6198;BME280;3132;42.622;23.328;2023-01-15T09:05:36;93192.84;;;5.28;79.38
6198;BME280;3132;42.622;23.328;2023-01-15T09:08:03;93174.66;;;5.23;78.92
6198;BME280;3132;42.622;23.328;2023-01-15T09:10:28;93184.13;;;5.62;78.12
6198;BME280;3132;42.622;23.328;2023-01-15T09:12:54;93157.97;;;5.47;77.86
6198;BME280;3132;42.622;23.328;2023-01-15T09:15:19;93134.63;;;5.58;76.50
6198;BME280;3132;42.622;23.328;2023-01-15T09:17:44;93151.66;;;5.71;76.16
6198;BME280;3132;42.622;23.328;2023-01-15T09:20:14;93187.16;;;5.87;77.73
6198;BME280;3132;42.622;23.328;2023-01-15T09:22:39;93165.97;;;5.90;76.69
6198;BME280;3132;42.622;23.328;2023-01-15T09:25:05;93173.34;;;6.14;77.55
6198;BME280;3132;42.622;23.328;2023-01-15T09:27:31;93154.88;;;6.11;75.42
6198;BME280;3132;42.622;23.328;2023-01-15T09:29:58;93168.91;;;6.15;75.77
6198;BME280;3132;42.622;23.328;2023-01-15T09:32:24;93168.44;;;6.18;76.34
6198;BME280;3132;42.622;23.328;2023-01-15T09:34:49;93163.59;;;6.05;75.69
6198;BME280;3132;42.622;23.328;2023-01-15T09:37:15;93122.13;;;5.55;76.29
6198;BME280;3132;42.622;23.328;2023-01-15T09:39:40;93145.69;;;5.87;76.69
6198;BME280;3132;42.622;23.328;2023-01-15T09:47:54;93153.03;;;6.28;75.97
6198;BME280;3132;42.622;23.328;2023-01-15T09:53:25;93139.97;;;6.39;74.83
6198;BME280;3132;42.622;23.328;2023-01-15T09:55:59;93133.50;;;6.20;75.03
6198;BME280;3132;42.622;23.328;2023-01-15T09:58:36;93124.03;;;5.93;78.51
6198;BME280;3132;42.622;23.328;2023-01-15T10:01:03;93108.72;;;6.29;75.85
6198;BME280;3132;42.622;23.328;2023-01-15T10:03:46;93122.06;;;6.38;75.60
6198;BME280;3132;42.622;23.328;2023-01-15T10:06:26;93117.38;;;6.35;75.27
6198;BME280;3132;42.622;23.328;2023-01-15T10:09:12;93097.50;;;6.24;75.93
6198;BME280;3132;42.622;23.328;2023-01-15T10:11:49;93095.81;;;6.56;75.68
6198;BME280;3132;42.622;23.328;2023-01-15T10:14:38;93085.13;;;6.74;75.43
6198;BME280;3132;42.622;23.328;2023-01-15T10:20:12;93093.59;;;6.86;73.56
6198;BME280;3132;42.622;23.328;2023-01-15T10:25:41;93071.75;;;5.96;76.79
6198;BME280;3132;42.622;23.328;2023-01-15T10:28:18;93074.47;;;6.27;77.07
6198;BME280;3132;42.622;23.328;2023-01-15T10:30:53;93070.53;;;6.68;74.47
6198;BME280;3132;42.622;23.328;2023-01-15T10:36:17;93061.41;;;6.39;75.00
6198;BME280;3132;42.622;23.328;2023-01-15T10:39:10;93058.97;;;6.54;75.24
6198;BME280;3132;42.622;23.328;2023-01-15T10:47:44;93042.38;;;6.33;75.08
6198;BME280;3132;42.622;23.328;2023-01-15T10:50:23;93046.25;;;6.31;75.62
6198;BME280;3132;42.622;23.328;2023-01-15T10:52:55;93039.31;;;6.15;76.62
6198;BME280;3132;42.622;23.328;2023-01-15T10:55:35;93018.09;;;6.18;76.85
6198;BME280;3132;42.622;23.328;2023-01-15T11:00:36;93029.50;;;6.65;76.33
6198;BME280;3132;42.622;23.328;2023-01-15T11:03:04;93023.22;;;6.83;74.45
6198;BME280;3132;42.622;23.328;2023-01-15T11:05:33;93025.19;;;6.97;73.73
6198;BME280;3132;42.622;23.328;2023-01-15T11:08:02;93007.16;;;6.86;73.98
6198;BME280;3132;42.622;23.328;2023-01-15T11:10:28;93009.13;;;7.05;73.02
6198;BME280;3132;42.622;23.328;2023-01-15T11:13:01;92991.66;;;6.64;73.99
6198;BME280;3132;42.622;23.328;2023-01-15T11:15:51;92993.25;;;6.70;74.14
6198;BME280;3132;42.622;23.328;2023-01-15T11:18:39;92988.50;;;6.62;74.00
6198;BME280;3132;42.622;23.328;2023-01-15T11:21:25;93009.88;;;6.74;74.39
6198;BME280;3132;42.622;23.328;2023-01-15T11:23:53;92997.31;;;6.61;75.44
6198;BME280;3132;42.622;23.328;2023-01-15T11:26:22;92988.13;;;6.75;75.14
6198;BME280;3132;42.622;23.328;2023-01-15T11:28:51;92950.97;;;6.43;74.99
6198;BME280;3132;42.622;23.328;2023-01-15T11:31:17;92996.03;;;6.90;74.62
6198;BME280;3132;42.622;23.328;2023-01-15T11:33:59;92989.69;;;6.76;75.19
6198;BME280;3132;42.622;23.328;2023-01-15T11:36:27;92970.88;;;6.64;75.01
6198;BME280;3132;42.622;23.328;2023-01-15T11:38:53;92980.16;;;6.60;76.11
6198;BME280;3132;42.622;23.328;2023-01-15T11:43:52;92958.97;;;6.36;76.13
6198;BME280;3132;42.622;23.328;2023-01-15T11:46:37;92965.88;;;6.31;76.72
6198;BME280;3132;42.622;23.328;2023-01-15T11:49:21;92957.47;;;6.19;77.07
6198;BME280;3132;42.622;23.328;2023-01-15T11:52:11;92966.25;;;6.18;78.14
6198;BME280;3132;42.622;23.328;2023-01-15T11:54:40;92962.97;;;6.22;77.31
6198;BME280;3132;42.622;23.328;2023-01-15T11:57:07;92963.50;;;6.03;77.92
6198;BME280;3132;42.622;23.328;2023-01-15T11:59:32;92932.63;;;5.80;78.44
6198;BME280;3132;42.622;23.328;2023-01-15T12:02:01;92957.13;;;5.89;78.93
6198;BME280;3132;42.622;23.328;2023-01-15T12:04:50;92944.09;;;5.84;78.97
6198;BME280;3132;42.622;23.328;2023-01-15T12:07:18;92958.53;;;5.80;79.63
6198;BME280;3132;42.622;23.328;2023-01-15T12:10:06;92950.69;;;5.75;80.27
6198;BME280;3132;42.622;23.328;2023-01-15T12:12:42;92946.16;;;5.82;80.34
6198;BME280;3132;42.622;23.328;2023-01-15T12:18:14;92942.25;;;5.63;81.04
6198;BME280;3132;42.622;23.328;2023-01-15T12:20:53;92934.59;;;5.51;81.46
6198;BME280;3132;42.622;23.328;2023-01-15T12:23:47;92936.78;;;5.59;81.90
6198;BME280;3132;42.622;23.328;2023-01-15T12:31:57;92935.13;;;5.91;81.41
6198;BME280;3132;42.622;23.328;2023-01-15T12:37:41;92908.28;;;5.81;80.85
6198;BME280;3132;42.622;23.328;2023-01-15T12:40:29;92930.78;;;5.97;80.95
6198;BME280;3132;42.622;23.328;2023-01-15T12:42:56;92918.13;;;6.00;80.37
6198;BME280;3132;42.622;23.328;2023-01-15T12:45:46;92918.19;;;5.84;81.44
6198;BME280;3132;42.622;23.328;2023-01-15T12:50:51;92921.88;;;5.88;81.43
6198;BME280;3132;42.622;23.328;2023-01-15T12:53:29;92919.59;;;5.75;82.20
6198;BME280;3132;42.622;23.328;2023-01-15T13:01:37;92886.34;;;5.83;82.38
6198;BME280;3132;42.622;23.328;2023-01-15T13:06:33;92901.19;;;6.14;82.27
6198;BME280;3132;42.622;23.328;2023-01-15T13:09:04;92901.66;;;6.11;82.50
6198;BME280;3132;42.622;23.328;2023-01-15T13:11:31;92891.25;;;6.33;80.49
6198;BME280;3132;42.622;23.328;2023-01-15T13:13:56;92889.28;;;6.45;79.86
6198;BME280;3132;42.622;23.328;2023-01-15T13:19:31;92902.34;;;6.60;79.89
6198;BME280;3132;42.622;23.328;2023-01-15T13:22:13;92875.41;;;6.61;80.09
6198;BME280;3132;42.622;23.328;2023-01-15T13:27:49;92886.31;;;6.63;80.08
6198;BME280;3132;42.622;23.328;2023-01-15T13:33:29;92869.31;;;6.45;78.09
6198;BME280;3132;42.622;23.328;2023-01-15T13:36:18;92881.19;;;6.36;78.43
6198;BME280;3132;42.622;23.328;2023-01-15T13:38:45;92880.75;;;6.23;78.83
6198;BME280;3132;42.622;23.328;2023-01-15T13:41:18;92863.16;;;5.98;80.64
6198;BME280;3132;42.622;23.328;2023-01-15T13:44:04;92877.94;;;5.98;81.04
6198;BME280;3132;42.622;23.328;2023-01-15T13:46:30;92858.13;;;5.87;80.87
6198;BME280;3132;42.622;23.328;2023-01-15T13:48:56;92851.72;;;5.73;81.47
6198;BME280;3132;42.622;23.328;2023-01-15T13:51:28;92868.66;;;5.80;81.50
6198;BME280;3132;42.622;23.328;2023-01-15T13:53:58;92865.63;;;5.67;82.26
6198;BME280;3132;42.622;23.328;2023-01-15T13:56:32;92862.88;;;5.52;83.42
6198;BME280;3132;42.622;23.328;2023-01-15T13:59:05;92868.13;;;5.57;82.98
6198;BME280;3132;42.622;23.328;2023-01-15T14:01:50;92867.56;;;5.55;81.92
6198;BME280;3132;42.622;23.328;2023-01-15T14:04:15;92810.63;;;5.12;83.33
6198;BME280;3132;42.622;23.328;2023-01-15T14:06:45;92866.53;;;5.34;84.60
6198;BME280;3132;42.622;23.328;2023-01-15T14:11:38;92856.72;;;5.15;86.18
6198;BME280;3132;42.622;23.328;2023-01-15T14:21:23;92851.41;;;5.05;87.68
6198;BME280;3132;42.622;23.328;2023-01-15T14:31:10;92833.19;;;4.78;87.66
6198;BME280;3132;42.622;23.328;2023-01-15T14:36:24;92828.63;;;4.63;88.25
6198;BME280;3132;42.622;23.328;2023-01-15T14:38:56;92795.44;;;4.39;88.65
6198;BME280;3132;42.622;23.328;2023-01-15T14:41:28;92853.91;;;4.61;88.47
6198;BME280;3132;42.622;23.328;2023-01-15T14:43:57;92822.19;;;4.49;88.98
6198;BME280;3132;42.622;23.328;2023-01-15T14:46:28;92816.72;;;4.46;89.51
6198;BME280;3132;42.622;23.328;2023-01-15T14:48:54;92799.03;;;4.21;89.54
6198;BME280;3132;42.622;23.328;2023-01-15T14:51:26;92830.19;;;4.31;89.99
6198;BME280;3132;42.622;23.328;2023-01-15T14:54:06;92841.78;;;4.29;89.99
6198;BME280;3132;42.622;23.328;2023-01-15T14:56:40;92838.88;;;4.25;90.09
6198;BME280;3132;42.622;23.328;2023-01-15T14:59:15;92832.34;;;4.06;90.44
6198;BME280;3132;42.622;23.328;2023-01-15T15:06:50;92832.81;;;3.87;91.32
6198;BME280;3132;42.622;23.328;2023-01-15T15:09:26;92827.41;;;3.88;91.16
6198;BME280;3132;42.622;23.328;2023-01-15T15:11:53;92838.28;;;3.90;91.15
6198;BME280;3132;42.622;23.328;2023-01-15T15:14:41;92819.19;;;3.75;91.02
6198;BME280;3132;42.622;23.328;2023-01-15T15:17:17;92844.53;;;3.78;91.99
6198;BME280;3132;42.622;23.328;2023-01-15T15:19:49;92823.81;;;3.61;91.91
6198;BME280;3132;42.622;23.328;2023-01-15T15:22:18;92839.97;;;3.68;92.10
6198;BME280;3132;42.622;23.328;2023-01-15T15:24:47;92834.06;;;3.56;94.57
6198;BME280;3132;42.622;23.328;2023-01-15T15:27:20;92838.78;;;3.59;94.01